Time;durP1;ratioP1;P1;durP2;ratioP2;P2;SDS_P1;SDS_P2;PMS_P1;PMS_P2;Temp;Humidity;BMP_temperature;BMP_pressure;BME280_temperature;BME280_humidity;BME280_pressure;Samples;Min_cycle;Max_cycle;Signal;HPM_P1;HPM_P2
2024/01/24 00:01:34;;;;;;;4.55;1.08;;;;;;;3.31;84.08;102276.28;5026547;28;20495;-66
2024/01/24 00:04:00;;;;;;;3.35;0.77;;;;;;;3.28;84.00;102273.84;5023300;28;20942;-66
2024/01/24 00:06:26;;;;;;;3.45;1.02;;;;;;;3.23;84.77;102265.44;5028812;28;20179;-66
2024/01/24 00:08:52;;;;;;;7.15;0.70;;;;;;;3.21;84.61;102270.66;5021607;28;20520;-66
2024/01/24 00:11:17;;;;;;;4.63;0.80;;;;;;;3.18;84.64;102269.91;5020943;28;20431;-66
2024/01/24 00:13:43;;;;;;;3.97;0.82;;;;;;;3.15;84.64;102270.84;5026190;28;20060;-66
2024/01/24 00:16:08;;;;;;;2.05;0.70;;;;;;;3.11;85.15;102264.13;5024157;28;20078;-66
2024/01/24 00:18:34;;;;;;;3.65;0.70;;;;;;;3.12;84.99;102265.81;5020278;28;20126;-66
2024/01/24 00:20:59;;;;;;;3.80;2.08;;;;;;;3.10;84.95;102265.03;5022226;28;20075;-66
2024/01/24 00:23:25;;;;;;;3.47;1.02;;;;;;;3.10;85.03;102259.03;5021173;28;20036;-66
2024/01/24 00:25:51;;;;;;;4.15;0.85;;;;;;;3.12;85.51;102264.97;5021572;28;20079;-66
2024/01/24 00:28:16;;;;;;;1.08;0.40;;;;;;;3.14;84.96;102261.44;5027077;28;20087;-66
2024/01/24 00:30:43;;;;;;;4.60;0.52;;;;;;;3.17;84.89;102257.94;5022965;28;20492;-66
2024/01/24 00:33:10;;;;;;;4.20;1.08;;;;;;;3.20;84.38;102257.81;5020350;28;20422;-66
2024/01/24 00:35:36;;;;;;;3.63;0.70;;;;;;;3.18;84.91;102254.47;5021399;28;20028;-66
2024/01/24 00:38:01;;;;;;;3.03;1.00;;;;;;;3.14;85.00;102252.88;5021587;28;20040;-65
2024/01/24 00:40:26;;;;;;;3.55;0.80;;;;;;;3.08;85.45;102253.09;5020535;28;20084;-66
2024/01/24 00:42:52;;;;;;;2.40;0.77;;;;;;;3.07;85.44;102248.84;5022893;28;20033;-65
2024/01/24 00:45:17;;;;;;;3.30;1.23;;;;;;;3.05;85.15;102248.03;5027396;28;20099;-66
2024/01/24 00:47:43;;;;;;;7.57;0.95;;;;;;;3.02;85.19;102248.16;5020941;28;20029;-66
2024/01/24 00:50:09;;;;;;;2.10;1.00;;;;;;;2.99;85.44;102243.94;5019929;28;20393;-66
2024/01/24 00:52:35;;;;;;;4.70;0.85;;;;;;;2.96;85.41;102239.75;5021824;28;20112;-66
2024/01/24 00:55:00;;;;;;;1.98;0.80;;;;;;;2.95;85.89;102253.50;5024204;28;20134;-66
2024/01/24 00:57:26;;;;;;;1.63;0.45;;;;;;;3.07;84.93;102261.72;5019820;28;20037;-66
2024/01/24 00:59:51;;;;;;;4.65;1.13;;;;;;;3.07;85.01;102262.56;5039676;28;20484;-66
2024/01/24 01:02:17;;;;;;;1.90;0.57;;;;;;;3.05;84.68;102259.19;5025600;28;20479;-66
2024/01/24 01:04:43;;;;;;;2.53;1.00;;;;;;;3.05;85.00;102261.75;5020271;28;20128;-65
2024/01/24 01:07:09;;;;;;;2.50;0.45;;;;;;;3.04;85.00;102256.66;5026370;28;21103;-66
2024/01/24 01:09:35;;;;;;;5.78;0.70;;;;;;;3.01;85.07;102252.47;5025316;28;20029;-66
2024/01/24 01:12:02;;;;;;;3.20;0.73;;;;;;;2.97;85.08;102251.72;5021256;28;20029;-66
2024/01/24 01:14:27;;;;;;;2.22;0.88;;;;;;;2.93;85.59;102259.59;5023709;28;20488;-66
2024/01/24 01:16:53;;;;;;;1.17;0.40;;;;;;;2.86;85.51;102264.13;5028297;28;21229;-66
2024/01/24 01:19:19;;;;;;;2.45;0.63;;;;;;;2.86;85.68;102256.38;5019896;28;20045;-66
2024/01/24 01:21:45;;;;;;;2.80;0.60;;;;;;;2.89;85.53;102252.88;5022028;28;20079;-66
2024/01/24 01:24:10;;;;;;;5.28;0.80;;;;;;;2.88;85.60;102254.59;5019080;28;20033;-66
2024/01/24 01:26:36;;;;;;;2.40;0.45;;;;;;;2.89;85.63;102238.25;5027267;28;20120;-66
2024/01/24 01:29:02;;;;;;;2.70;0.63;;;;;;;2.94;85.35;102231.22;5020382;28;20688;-66
2024/01/24 01:31:27;;;;;;;4.90;0.45;;;;;;;2.95;85.16;102227.75;5025967;28;20076;-66
2024/01/24 01:33:53;;;;;;;1.35;0.50;;;;;;;2.95;84.84;102221.78;5024414;28;20061;-66
2024/01/24 01:36:19;;;;;;;5.03;0.77;;;;;;;2.95;85.18;102221.78;5033101;28;20039;-66
2024/01/24 01:38:45;;;;;;;1.67;0.47;;;;;;;2.92;85.22;102216.72;5024942;28;20439;-66
2024/01/24 01:41:10;;;;;;;2.53;0.77;;;;;;;2.94;85.40;102225.22;5023927;28;20036;-66
2024/01/24 01:43:36;;;;;;;3.35;0.82;;;;;;;2.91;85.45;102221.03;5046081;28;20037;-66
2024/01/24 01:46:06;;;;;;;2.20;0.70;;;;;;;2.86;85.59;102215.19;5053030;28;20114;-66
2024/01/24 01:48:33;;;;;;;2.25;0.80;;;;;;;2.84;85.33;102224.69;5037683;28;20510;-66
2024/01/24 01:51:00;;;;;;;2.78;0.77;;;;;;;2.85;85.40;102231.53;5023889;28;20060;-66
2024/01/24 01:53:26;;;;;;;2.60;0.40;;;;;;;2.82;85.72;102228.25;5025092;28;20029;-66
2024/01/24 01:55:53;;;;;;;3.72;0.57;;;;;;;2.78;85.80;102224.94;5025480;28;20162;-66
2024/01/24 01:58:19;;;;;;;3.42;0.88;;;;;;;2.73;86.47;102215.69;5035336;28;20065;-66
2024/01/24 02:00:48;;;;;;;2.38;0.60;;;;;;;2.67;86.61;102217.56;5026348;28;20041;-66
2024/01/24 02:03:14;;;;;;;1.60;0.77;;;;;;;2.66;86.67;102209.91;5034089;28;20884;-65
2024/01/24 02:05:39;;;;;;;4.35;0.80;;;;;;;2.68;86.46;102205.53;5026384;28;20047;-65
2024/01/24 02:08:06;;;;;;;8.80;0.93;;;;;;;2.68;86.57;102208.13;5030493;28;20033;-66
2024/01/24 02:10:31;;;;;;;2.85;1.10;;;;;;;2.70;86.67;102201.19;5025397;28;20365;-66
2024/01/24 02:12:57;;;;;;;3.70;0.70;;;;;;;2.70;86.67;102195.19;5028073;28;20091;-66
2024/01/24 02:15:22;;;;;;;2.53;0.88;;;;;;;2.71;86.46;102197.72;5027611;28;20529;-65
2024/01/24 02:17:48;;;;;;;3.45;0.57;;;;;;;2.72;86.43;102191.69;5028479;28;20033;-66
2024/01/24 02:20:13;;;;;;;2.97;1.08;;;;;;;2.72;86.58;102183.13;5025408;28;20836;-66
2024/01/24 02:22:39;;;;;;;2.03;0.50;;;;;;;2.72;86.36;102188.28;5026662;28;20772;-66
2024/01/24 02:25:05;;;;;;;5.80;1.02;;;;;;;2.72;86.67;102193.41;5026190;28;20041;-66
2024/01/24 02:27:31;;;;;;;2.15;0.60;;;;;;;2.72;86.81;102183.13;5025913;28;20512;-66
2024/01/24 02:29:57;;;;;;;3.03;0.70;;;;;;;2.71;86.46;102192.56;5027997;28;20033;-66
2024/01/24 02:32:23;;;;;;;3.88;0.68;;;;;;;2.72;86.79;102194.25;5031412;28;20041;-66
2024/01/24 02:34:48;;;;;;;5.88;0.65;;;;;;;2.73;86.62;102184.81;5024533;28;20503;-66
2024/01/24 02:37:15;;;;;;;3.15;1.10;;;;;;;2.72;86.41;102181.38;5025779;28;20072;-66
2024/01/24 02:39:40;;;;;;;3.50;0.88;;;;;;;2.70;86.84;102169.47;5025427;28;21317;-66
2024/01/24 02:42:08;;;;;;;2.35;0.65;;;;;;;2.66;87.15;102158.44;5024653;28;20425;-66
2024/01/24 02:44:34;;;;;;;5.30;1.17;;;;;;;2.64;86.88;102150.75;5031595;28;20040;-66
2024/01/24 02:46:59;;;;;;;1.55;0.60;;;;;;;2.60;87.23;102153.50;5026281;28;20432;-66
2024/01/24 02:49:25;;;;;;;1.38;0.50;;;;;;;2.56;87.42;102152.75;5028753;28;20097;-66
2024/01/24 02:51:50;;;;;;;4.28;1.00;;;;;;;2.50;87.72;102152.97;5023229;28;20044;-66
2024/01/24 02:54:16;;;;;;;4.88;0.73;;;;;;;2.50;88.27;102136.69;5025721;28;20036;-66
2024/01/24 02:56:41;;;;;;;2.72;0.57;;;;;;;2.50;88.12;102140.09;5027100;28;20075;-65
2024/01/24 02:59:07;;;;;;;2.92;0.63;;;;;;;2.47;88.24;102152.22;5033886;28;20107;-66
2024/01/24 03:01:32;;;;;;;1.92;0.82;;;;;;;2.46;88.47;102161.66;5025576;28;20485;-66
2024/01/24 03:03:58;;;;;;;2.10;0.82;;;;;;;2.49;88.41;102150.44;5029736;28;20127;-66
2024/01/24 03:06:23;;;;;;;4.32;1.83;;;;;;;2.53;88.36;102147.72;5036828;28;20089;-66
2024/01/24 03:08:51;;;;;;;5.75;0.90;;;;;;;2.54;88.26;102138.25;5038622;28;20029;-66
2024/01/24 03:11:17;;;;;;;3.42;0.73;;;;;;;2.53;88.07;102136.56;5024848;28;20887;-66
2024/01/24 03:13:42;;;;;;;2.67;0.93;;;;;;;2.47;87.95;102137.63;5027039;28;20036;-66
2024/01/24 03:16:08;;;;;;;2.60;0.85;;;;;;;2.46;88.31;102141.09;5024103;28;20049;-65
2024/01/24 03:18:37;;;;;;;1.13;0.50;;;;;;;2.46;88.21;102132.53;5025897;28;20041;-66
2024/01/24 03:21:08;;;;;;;1.65;0.65;;;;;;;2.48;88.52;102110.16;5028077;28;20504;-66
2024/01/24 03:23:34;;;;;;;4.53;0.52;;;;;;;2.48;88.66;102092.16;5026484;28;20028;-66
2024/01/24 03:25:59;;;;;;;4.35;0.88;;;;;;;2.43;88.88;102102.59;5021546;28;20065;-66
2024/01/24 03:28:25;;;;;;;3.28;1.13;;;;;;;2.25;89.98;102106.66;5022720;28;20180;-66
2024/01/24 03:30:52;;;;;;;5.75;1.00;;;;;;;2.16;90.91;102118.97;5020702;28;20386;-66
2024/01/24 03:33:17;;;;;;;2.47;0.80;;;;;;;2.19;90.71;102122.28;5021595;28;20040;-66
2024/01/24 03:35:43;;;;;;;2.75;0.60;;;;;;;2.28;90.81;102118.56;5027267;28;20055;-67
2024/01/24 03:38:08;;;;;;;4.72;1.58;;;;;;;2.32;90.27;102103.00;5023830;28;20684;-66
2024/01/24 03:40:33;;;;;;;2.33;0.47;;;;;;;2.34;90.18;102097.78;5021663;28;20454;-66
2024/01/24 03:42:59;;;;;;;3.40;0.60;;;;;;;2.35;90.09;102103.78;5021555;28;20040;-66
2024/01/24 03:45:24;;;;;;;1.65;0.52;;;;;;;2.36;89.54;102084.88;5021744;28;20040;-66
2024/01/24 03:47:50;;;;;;;3.05;0.88;;;;;;;2.28;89.70;102075.69;5020305;28;20377;-66
2024/01/24 03:50:16;;;;;;;1.38;0.47;;;;;;;2.23;89.96;102080.16;5030592;28;20040;-66
2024/01/24 03:52:41;;;;;;;2.83;1.45;;;;;;;2.23;90.31;102066.44;5019949;28;20033;-66
2024/01/24 03:55:07;;;;;;;3.25;0.70;;;;;;;2.26;89.68;102066.34;5021960;28;20493;-66
2024/01/24 03:57:32;;;;;;;2.55;0.43;;;;;;;2.34;89.94;102074.66;5029131;28;20150;-66
2024/01/24 03:59:58;;;;;;;1.55;0.40;;;;;;;2.33;89.56;102073.81;5038545;28;20481;-66
2024/01/24 04:02:23;;;;;;;1.08;0.57;;;;;;;2.30;90.21;102071.34;5029897;28;20033;-66
2024/01/24 04:04:48;;;;;;;2.58;0.75;;;;;;;2.33;89.76;102057.53;5023105;28;20618;-66
2024/01/24 04:07:14;;;;;;;1.67;0.57;;;;;;;2.32;89.89;102058.44;5022888;28;20044;-66
2024/01/24 04:09:39;;;;;;;4.63;0.77;;;;;;;2.33;90.06;102089.25;5021661;28;21377;-66
2024/01/24 04:12:05;;;;;;;8.15;1.23;;;;;;;2.31;89.97;102101.31;5026458;28;20054;-66
2024/01/24 04:14:30;;;;;;;1.58;0.63;;;;;;;2.29;89.70;102100.53;5021466;28;20484;-66
2024/01/24 04:16:56;;;;;;;1.90;0.75;;;;;;;2.29;89.50;102092.81;5023526;28;20116;-66
2024/01/24 04:19:21;;;;;;;4.45;0.60;;;;;;;2.28;89.48;102103.97;5027754;28;20423;-66
2024/01/24 04:21:47;;;;;;;3.00;0.70;;;;;;;2.28;89.51;102100.56;5021603;28;20148;-66
2024/01/24 04:24:12;;;;;;;3.03;0.82;;;;;;;2.25;89.29;102106.66;5022315;28;20500;-66
2024/01/24 04:26:38;;;;;;;3.50;0.80;;;;;;;2.21;89.53;102106.81;5019457;28;20045;-66
2024/01/24 04:29:03;;;;;;;2.25;0.60;;;;;;;2.17;89.79;102112.94;5024589;28;20021;-66
2024/01/24 04:31:29;;;;;;;4.88;0.93;;;;;;;2.12;90.06;102104.53;5021198;28;20057;-66
2024/01/24 04:33:55;;;;;;;3.03;0.70;;;;;;;2.07;89.97;102099.53;5021617;28;20049;-66
2024/01/24 04:36:20;;;;;;;4.07;0.77;;;;;;;2.04;90.25;102079.06;5025359;28;20033;-66
2024/01/24 04:38:46;;;;;;;5.28;0.70;;;;;;;2.02;90.50;102088.56;5020132;28;20063;-66
2024/01/24 04:41:11;;;;;;;3.30;1.15;;;;;;;2.05;90.15;102088.47;5022429;28;20037;-66
2024/01/24 04:43:37;;;;;;;1.15;0.45;;;;;;;2.07;90.32;102091.00;5024274;28;20049;-66
2024/01/24 04:46:02;;;;;;;3.10;0.73;;;;;;;2.04;90.39;102097.06;5020450;28;21440;-66
2024/01/24 04:48:28;;;;;;;3.47;0.52;;;;;;;1.99;90.53;102104.09;5020161;28;20056;-66
2024/01/24 04:50:53;;;;;;;2.35;0.93;;;;;;;1.97;90.97;102100.72;5026993;28;20029;-66
2024/01/24 04:53:19;;;;;;;2.03;0.47;;;;;;;1.93;91.20;102089.69;5020382;28;20041;-66
2024/01/24 04:55:44;;;;;;;3.97;0.75;;;;;;;1.93;91.48;102088.88;5019460;28;20025;-66
2024/01/24 04:58:11;;;;;;;8.70;0.90;;;;;;;1.97;91.60;102086.16;5020600;28;20524;-66
2024/01/24 05:00:36;;;;;;;3.83;0.50;;;;;;;2.03;90.84;102099.69;5034397;28;20435;-66
2024/01/24 05:03:02;;;;;;;2.20;0.47;;;;;;;2.04;90.91;102084.22;5020719;28;20029;-65
2024/01/24 05:05:28;;;;;;;2.40;0.50;;;;;;;2.07;90.17;102081.53;5023322;28;20473;-66
2024/01/24 05:07:54;;;;;;;4.10;0.70;;;;;;;2.03;90.35;102090.25;5034827;28;20408;-66
2024/01/24 05:10:19;;;;;;;2.33;0.85;;;;;;;2.03;90.69;102100.53;5020700;28;20116;-66
2024/01/24 05:12:45;;;;;;;5.93;0.60;;;;;;;2.12;90.27;102095.09;5024157;28;20588;-66
2024/01/24 05:15:12;;;;;;;2.25;0.70;;;;;;;2.08;90.26;102087.53;5025375;28;20076;-66
2024/01/24 05:17:39;;;;;;;2.10;0.60;;;;;;;2.07;90.06;102089.25;5021858;28;20347;-65
2024/01/24 05:20:06;;;;;;;3.80;0.75;;;;;;;2.06;90.00;102089.31;5045354;28;20079;-66
2024/01/24 05:22:32;;;;;;;3.00;0.82;;;;;;;2.04;90.49;102094.50;5041594;28;20116;-65
2024/01/24 05:24:58;;;;;;;3.05;0.70;;;;;;;1.99;90.44;102086.94;5027680;28;20032;-65
2024/01/24 05:27:23;;;;;;;2.28;0.60;;;;;;;1.95;90.51;102092.22;5040676;28;20029;-65
2024/01/24 05:29:49;;;;;;;3.33;0.73;;;;;;;1.87;90.67;102089.09;5023639;28;20044;-65
2024/01/24 05:32:14;;;;;;;2.30;0.40;;;;;;;1.81;90.97;102090.13;5025992;28;20209;-66
2024/01/24 05:34:40;;;;;;;1.77;0.57;;;;;;;1.75;91.36;102090.31;5023565;28;20070;-65
2024/01/24 05:37:05;;;;;;;4.05;0.73;;;;;;;1.71;92.15;102099.00;5047142;28;20033;-66
2024/01/24 05:39:31;;;;;;;2.63;0.90;;;;;;;1.66;92.50;102095.75;5025084;28;20041;-66
2024/01/24 05:41:56;;;;;;;2.80;1.00;;;;;;;1.64;92.65;102111.19;5029470;28;20873;-65
2024/01/24 05:44:22;;;;;;;2.00;0.77;;;;;;;1.62;92.85;102107.84;5023915;28;20037;-66
2024/01/24 05:46:47;;;;;;;8.18;0.93;;;;;;;1.57;93.29;102094.28;5025105;28;20044;-65
2024/01/24 05:49:13;;;;;;;5.18;0.98;;;;;;;1.58;93.24;102100.28;5024041;28;20040;-66
2024/01/24 05:51:38;;;;;;;5.60;0.70;;;;;;;1.57;93.33;102106.28;5025207;28;20037;-66
2024/01/24 05:54:04;;;;;;;3.80;0.60;;;;;;;1.55;93.57;102103.78;5032231;28;20033;-66
2024/01/24 05:56:30;;;;;;;1.63;0.73;;;;;;;1.55;93.77;102105.50;5028559;28;20167;-66
2024/01/24 05:58:56;;;;;;;1.85;0.52;;;;;;;1.53;94.15;102100.41;5048047;28;20040;-67
2024/01/24 06:01:21;;;;;;;7.38;1.73;;;;;;;1.51;94.08;102101.34;5048785;28;20025;-66
2024/01/24 06:03:47;;;;;;;5.65;1.30;;;;;;;1.43;94.83;102104.13;5046919;28;20042;-66
2024/01/24 06:06:12;;;;;;;5.90;1.45;;;;;;;1.25;96.53;102097.00;5051368;28;20032;-66
2024/01/24 06:08:38;;;;;;;3.35;1.48;;;;;;;1.18;98.21;102092.94;5047694;28;20033;-66
2024/01/24 06:11:04;;;;;;;5.55;1.73;;;;;;;1.18;98.84;102101.47;5047746;28;20417;-66
2024/01/24 06:13:30;;;;;;;3.47;1.52;;;;;;;1.11;98.46;102120.50;5051198;28;20033;-66
2024/01/24 06:15:56;;;;;;;3.72;1.40;;;;;;;1.27;99.62;102132.03;5050279;28;20029;-66
2024/01/24 06:18:21;;;;;;;3.80;1.15;;;;;;;1.49;97.97;102139.91;5054963;28;20030;-66
2024/01/24 06:20:47;;;;;;;3.65;0.90;;;;;;;1.64;96.30;102134.31;5047498;28;20385;-66
2024/01/24 06:23:13;;;;;;;1.65;0.55;;;;;;;1.78;95.05;102135.63;5049556;28;20119;-66
2024/01/24 06:25:38;;;;;;;1.50;0.88;;;;;;;1.89;94.04;102149.00;5049716;28;20032;-66
2024/01/24 06:28:04;;;;;;;2.53;0.80;;;;;;;1.93;93.35;102159.09;5049946;28;20445;-66
2024/01/24 06:30:30;;;;;;;5.22;1.02;;;;;;;1.93;93.06;102150.56;5050273;28;20069;-66
2024/01/24 06:32:55;;;;;;;3.85;1.35;;;;;;;1.92;92.43;102129.16;5051004;28;20037;-66
2024/01/24 06:35:21;;;;;;;1.88;0.80;;;;;;;1.91;92.42;102126.63;5048078;28;20029;-66
2024/01/24 06:37:49;;;;;;;2.53;0.82;;;;;;;1.91;92.19;102122.31;5051473;28;20392;-66
2024/01/24 06:40:14;;;;;;;1.83;0.80;;;;;;;1.92;92.44;102121.44;5051958;28;20103;-66
2024/01/24 06:42:40;;;;;;;2.33;0.80;;;;;;;1.92;92.90;102118.88;5047834;28;20107;-66
2024/01/24 06:45:08;;;;;;;1.80;0.60;;;;;;;1.94;92.81;102121.38;5050017;28;20472;-66
2024/01/24 06:47:34;;;;;;;6.43;1.17;;;;;;;2.03;92.81;102135.69;5048543;28;20033;-66
2024/01/24 06:49:59;;;;;;;3.15;0.98;;;;;;;2.12;92.51;102138.81;5047057;28;20029;-66
2024/01/24 06:52:25;;;;;;;3.55;0.90;;;;;;;2.17;92.34;102134.34;5045814;28;20033;-66
2024/01/24 06:54:51;;;;;;;3.22;1.13;;;;;;;2.17;92.92;102144.63;5048615;28;20028;-66
2024/01/24 06:57:16;;;;;;;3.80;1.50;;;;;;;2.18;93.31;102141.19;5050802;28;20039;-66
2024/01/24 06:59:43;;;;;;;3.25;1.40;;;;;;;2.21;93.54;102141.09;5049419;28;20051;-66
2024/01/24 07:02:09;;;;;;;4.28;1.60;;;;;;;2.21;93.30;102133.38;5048300;28;20401;-66
2024/01/24 07:04:34;;;;;;;4.53;1.45;;;;;;;2.20;93.25;102129.13;5049363;28;20025;-65
2024/01/24 07:07:00;;;;;;;5.15;1.30;;;;;;;2.24;93.16;102140.16;5051716;28;20033;-65
2024/01/24 07:09:26;;;;;;;5.00;1.20;;;;;;;2.27;93.19;102124.59;5047048;28;20421;-66
2024/01/24 07:11:51;;;;;;;4.20;1.52;;;;;;;2.30;93.43;102104.78;5049267;28;20029;-66
2024/01/24 07:14:17;;;;;;;3.38;1.10;;;;;;;2.33;94.11;102107.25;5046383;28;20036;-66
2024/01/24 07:16:44;;;;;;;7.97;2.70;;;;;;;2.34;94.47;102110.66;5048105;28;20056;-66
2024/01/24 07:19:09;;;;;;;3.85;1.80;;;;;;;2.38;95.51;102116.50;5047377;28;20035;-65
2024/01/24 07:21:35;;;;;;;4.57;1.75;;;;;;;2.44;96.12;102108.59;5050116;28;20033;-65
2024/01/24 07:24:00;;;;;;;4.25;1.73;;;;;;;2.51;96.17;102104.91;5046093;28;20043;-65
2024/01/24 07:26:26;;;;;;;15.15;2.78;;;;;;;2.56;96.25;102101.28;5049375;28;20037;-66
2024/01/24 07:28:52;;;;;;;11.63;2.83;;;;;;;2.60;96.12;102113.16;5048487;28;20033;-65
2024/01/24 07:31:17;;;;;;;5.03;2.50;;;;;;;2.58;95.48;102114.09;5047918;28;20045;-65
2024/01/24 07:33:43;;;;;;;5.88;2.00;;;;;;;2.62;95.81;102110.53;5047367;28;20086;-65
2024/01/24 07:36:09;;;;;;;8.05;2.70;;;;;;;2.67;96.16;102109.47;5040987;28;20033;-66
2024/01/24 07:38:34;;;;;;;10.27;3.45;;;;;;;2.72;95.73;102111.06;5046915;28;20108;-65
2024/01/24 07:40:59;;;;;;;11.27;3.58;;;;;;;2.77;95.80;102117.72;5049467;28;20040;-66
2024/01/24 07:43:25;;;;;;;7.30;2.45;;;;;;;2.79;94.97;102117.66;5049188;28;20035;-65
2024/01/24 07:45:50;;;;;;;7.25;2.17;;;;;;;2.85;93.73;102125.16;5041197;28;20058;-65
2024/01/24 07:48:16;;;;;;;19.25;2.10;;;;;;;2.86;93.04;102113.94;5048999;28;20143;-65
2024/01/24 07:50:42;;;;;;;4.25;1.85;;;;;;;2.87;92.17;102113.06;5048890;28;20075;-65
2024/01/24 07:53:09;;;;;;;5.90;1.63;;;;;;;2.89;91.73;102117.25;5042729;28;20037;-66
2024/01/24 07:55:35;;;;;;;4.05;1.40;;;;;;;2.94;91.68;102117.09;5041367;28;20036;-66
2024/01/24 07:58:00;;;;;;;6.00;2.05;;;;;;;2.98;91.73;102118.66;5051213;28;20029;-65
2024/01/24 08:00:26;;;;;;;4.68;1.80;;;;;;;2.96;90.80;102105.84;5049482;28;20071;-66
2024/01/24 08:02:51;;;;;;;2.88;1.20;;;;;;;2.95;90.80;102096.44;5044786;28;20033;-65
2024/01/24 08:05:18;;;;;;;4.85;1.42;;;;;;;2.94;90.62;102102.50;5052579;28;20506;-63
2024/01/24 08:07:43;;;;;;;8.88;2.83;;;;;;;2.95;90.18;102106.75;5048833;28;20041;-63
2024/01/24 08:10:12;;;;;;;5.50;2.20;;;;;;;2.96;90.58;102120.47;5048522;28;20044;-63
2024/01/24 08:12:38;;;;;;;4.90;1.45;;;;;;;2.90;89.74;102121.50;5046036;28;20037;-64
2024/01/24 08:15:07;;;;;;;3.13;1.27;;;;;;;2.87;90.14;102119.03;5050053;28;20025;-64
2024/01/24 08:17:34;;;;;;;4.32;1.33;;;;;;;2.81;90.25;102137.31;5051025;28;20120;-64
2024/01/24 08:19:59;;;;;;;5.05;1.48;;;;;;;2.81;90.55;102137.31;5045687;28;20033;-64
2024/01/24 08:22:29;;;;;;;4.07;1.13;;;;;;;2.83;90.83;102125.22;5047565;28;20043;-64
2024/01/24 08:24:55;;;;;;;2.75;1.20;;;;;;;2.91;90.78;102127.50;5043233;28;20144;-63
2024/01/24 08:27:20;;;;;;;5.75;1.77;;;;;;;2.98;90.32;102126.38;5047854;28;20115;-63
2024/01/24 08:29:45;;;;;;;7.88;1.70;;;;;;;3.07;90.05;102131.22;5047210;28;20029;-63
2024/01/24 08:32:11;;;;;;;7.68;1.70;;;;;;;3.15;90.24;102111.16;5044802;28;20045;-63
2024/01/24 08:34:37;;;;;;;4.15;1.10;;;;;;;3.18;90.07;102087.88;5042410;28;20451;-66
2024/01/24 08:37:03;;;;;;;6.75;1.90;;;;;;;3.25;90.13;102078.19;5049678;28;20033;-64
2024/01/24 08:39:28;;;;;;;9.38;3.05;;;;;;;3.38;90.32;102084.53;5047590;28;20060;-62
2024/01/24 08:41:53;;;;;;;7.15;2.28;;;;;;;3.54;90.10;102088.19;5044639;28;20041;-62
2024/01/24 08:44:19;;;;;;;8.93;2.92;;;;;;;3.69;89.71;102086.75;5050681;28;20504;-62
2024/01/24 08:46:44;;;;;;;7.13;3.50;;;;;;;3.87;90.73;102096.31;5046959;28;20037;-64
2024/01/24 08:49:12;;;;;;;14.32;4.55;;;;;;;3.95;89.99;102090.84;5052979;28;20028;-64
2024/01/24 08:51:38;;;;;;;10.88;3.88;;;;;;;4.00;90.01;102102.66;5055791;28;20036;-62
2024/01/24 08:54:04;;;;;;;12.98;4.70;;;;;;;4.07;90.88;102118.72;5056777;28;20393;-62
2024/01/24 08:56:30;;;;;;;8.45;3.92;;;;;;;4.08;90.42;102114.41;5053904;28;20112;-62
2024/01/24 08:58:55;;;;;;;10.50;4.47;;;;;;;4.11;91.03;102112.53;5052900;28;20473;-62
2024/01/24 09:01:20;;;;;;;11.65;4.43;;;;;;;4.14;90.58;102093.53;5053077;28;20032;-62
2024/01/24 09:03:48;;;;;;;11.82;5.22;;;;;;;4.16;90.80;102092.56;5050368;28;20036;-62
2024/01/24 09:06:13;;;;;;;12.85;4.90;;;;;;;4.24;91.54;102111.13;5052958;28;20029;-62
2024/01/24 09:08:39;;;;;;;15.00;5.20;;;;;;;4.30;89.42;102115.19;5053479;28;20033;-62
2024/01/24 09:11:04;;;;;;;9.05;4.05;;;;;;;4.29;88.08;102119.50;5052553;28;20040;-62
2024/01/24 09:13:30;;;;;;;4.43;2.33;;;;;;;4.24;87.53;102131.78;5053422;28;20495;-62
2024/01/24 09:15:55;;;;;;;7.07;2.50;;;;;;;4.16;87.49;102136.41;5051571;28;20096;-62
2024/01/24 09:18:21;;;;;;;6.03;2.20;;;;;;;4.15;87.81;102139.06;5053322;28;20037;-62
2024/01/24 09:20:46;;;;;;;8.98;2.53;;;;;;;4.14;87.19;102143.38;5049739;28;20136;-62
2024/01/24 09:23:12;;;;;;;10.98;3.20;;;;;;;4.17;87.65;102138.09;5051081;28;20102;-62
2024/01/24 09:25:38;;;;;;;7.97;3.03;;;;;;;4.23;88.22;102139.59;5045325;28;20021;-62
2024/01/24 09:28:08;;;;;;;6.03;2.42;;;;;;;4.24;88.69;102131.78;5048533;28;20086;-62
2024/01/24 09:30:34;;;;;;;11.15;3.45;;;;;;;4.30;87.82;102131.50;5049767;28;20037;-62
2024/01/24 09:32:59;;;;;;;5.63;2.90;;;;;;;4.34;87.96;102125.31;5047063;28;20036;-62
2024/01/24 09:35:24;;;;;;;10.60;3.97;;;;;;;4.37;87.14;102136.41;5051895;28;20048;-62
2024/01/24 09:37:50;;;;;;;6.55;3.20;;;;;;;4.32;86.68;102126.28;5052566;28;20532;-62
2024/01/24 09:40:16;;;;;;;6.07;2.80;;;;;;;4.33;87.21;102125.38;5054071;28;20040;-62
2024/01/24 09:42:43;;;;;;;6.63;2.28;;;;;;;4.42;86.94;102108.66;5051097;28;20033;-61
2024/01/24 09:45:09;;;;;;;7.47;2.75;;;;;;;4.51;86.74;102093.63;5049839;28;20446;-62
2024/01/24 09:47:36;;;;;;;11.20;3.45;;;;;;;4.64;86.88;102083.63;5052074;28;20024;-62
2024/01/24 09:50:05;;;;;;;6.93;3.35;;;;;;;4.83;86.76;102083.63;5049989;28;20034;-62
2024/01/24 09:52:35;;;;;;;8.50;3.85;;;;;;;4.94;86.62;102079.66;5054388;28;20040;-61
2024/01/24 09:55:06;;;;;;;6.88;3.55;;;;;;;5.02;85.87;102071.56;5049617;28;20078;-62
2024/01/24 09:57:32;;;;;;;8.05;3.17;;;;;;;5.07;85.98;102076.53;5051530;28;20442;-62
2024/01/24 09:59:58;;;;;;;7.25;4.25;;;;;;;5.12;85.61;102077.16;5043334;28;20033;-63
2024/01/24 10:02:25;;;;;;;7.55;3.33;;;;;;;5.03;85.45;102075.00;5047810;28;20078;-62
2024/01/24 10:04:52;;;;;;;12.35;4.10;;;;;;;4.98;86.53;102068.28;5050790;28;20029;-62
2024/01/24 10:07:19;;;;;;;16.58;3.90;;;;;;;5.02;85.54;102068.16;5047724;28;20032;-62
2024/01/24 10:09:46;;;;;;;10.15;4.28;;;;;;;5.04;85.67;102061.16;5046838;28;20078;-62
2024/01/24 10:12:11;;;;;;;12.48;4.00;;;;;;;5.06;84.87;102069.69;5032957;28;20503;-62
2024/01/24 10:14:40;;;;;;;16.33;4.10;;;;;;;5.16;84.97;102073.53;5049662;28;20037;-62
2024/01/24 10:17:09;;;;;;;15.82;4.60;;;;;;;5.23;85.56;102072.31;5051512;28;20029;-62
2024/01/24 10:19:36;;;;;;;9.30;3.35;;;;;;;5.21;84.53;102066.38;5049308;28;20152;-62
2024/01/24 10:22:01;;;;;;;11.43;4.97;;;;;;;5.19;85.07;102060.47;5052228;28;20056;-62
2024/01/24 10:24:31;;;;;;;14.60;5.82;;;;;;;5.22;85.58;102055.97;5048270;28;20029;-62
2024/01/24 10:26:56;;;;;;;14.77;5.35;;;;;;;5.34;84.60;102046.81;5048284;28;20496;-62
2024/01/24 10:29:22;;;;;;;13.20;4.85;;;;;;;5.42;85.43;102051.63;5050468;28;20143;-63
2024/01/24 10:31:54;;;;;;;11.02;4.70;;;;;;;5.55;84.00;102043.22;5048409;28;20041;-62
2024/01/24 10:34:20;;;;;;;12.75;4.25;;;;;;;5.68;83.83;102041.69;5050680;28;20044;-62
2024/01/24 10:36:46;;;;;;;9.05;4.15;;;;;;;5.73;83.73;102032.88;5046064;28;20402;-63
2024/01/24 10:39:14;;;;;;;8.75;3.92;;;;;;;5.74;84.95;102022.44;5052760;28;20365;-62
2024/01/24 10:41:43;;;;;;;7.55;4.38;;;;;;;5.79;84.01;102020.47;5051336;28;20040;-62
2024/01/24 10:44:09;;;;;;;15.57;6.65;;;;;;;5.92;83.58;102021.56;5053459;28;20028;-63
2024/01/24 10:46:36;;;;;;;12.85;6.95;;;;;;;6.07;84.38;102019.97;5048629;28;20037;-62
2024/01/24 10:49:03;;;;;;;12.40;6.43;;;;;;;6.14;84.68;102020.50;5044587;28;20099;-62
2024/01/24 10:51:29;;;;;;;9.75;5.05;;;;;;;6.16;82.93;102024.66;5042668;28;20025;-62
2024/01/24 10:53:55;;;;;;;11.45;5.15;;;;;;;6.19;84.82;102001.22;5049633;28;20068;-62
2024/01/24 10:56:23;;;;;;;12.05;5.45;;;;;;;6.19;84.27;101998.63;5050995;28;20499;-62
2024/01/24 10:58:51;;;;;;;12.45;6.97;;;;;;;6.26;84.20;101994.81;5048431;28;20103;-62
2024/01/24 11:01:17;;;;;;;13.82;5.47;;;;;;;6.29;84.56;101992.06;5047897;28;20055;-62
2024/01/24 11:03:45;;;;;;;14.80;6.38;;;;;;;6.27;84.59;101991.28;5044959;28;20028;-62
2024/01/24 11:06:16;;;;;;;8.10;5.20;;;;;;;6.29;85.32;101984.28;5049548;28;20062;-62
2024/01/24 11:08:44;;;;;;;10.93;5.57;;;;;;;6.48;83.65;101972.97;5047561;28;20028;-62
2024/01/24 11:11:13;;;;;;;13.43;6.35;;;;;;;6.60;83.12;101985.28;5049557;28;20476;-62
2024/01/24 11:13:39;;;;;;;11.38;5.43;;;;;;;6.70;83.37;101985.59;5050621;28;20113;-62
2024/01/24 11:16:45;;;;;;;10.95;5.88;;;;;;;6.91;82.79;101972.31;5050571;28;20158;-62
2024/01/24 11:19:22;;;;;;;15.85;7.40;;;;;;;7.07;83.58;101961.13;5002338;28;20128;-63
2024/01/24 11:21:52;;;;;;;13.20;7.30;;;;;;;7.14;84.24;101942.50;5005165;28;20473;-62
2024/01/24 11:24:43;;;;;;;13.93;6.15;;;;;;;7.12;83.23;101926.22;5002981;28;20061;-62
2024/01/24 11:27:34;;;;;;;14.00;7.43;;;;;;;7.22;82.71;101919.59;5005730;28;20030;-62